Terminal Aerodrome Forecast
Issued by NWS

Home | Current Version | Previous Version | Text Only | Print | Product List | Glossary On
Versions: 1 2 3 4 5 6 7 8 9 10 11 12
000
FTUS45 KVEF 291726
TAFEED
TAF
KEED 291726Z 2918/3018 16008KT P6SM SCT150 SCT200
     FM292200 21008KT P6SM VCTS SCT120CB
      TEMPO 2922/3002 VRB20G30KT
     FM300300 23010KT P6SM SCT120 BKN200
     FM301100 VRB05KT P6SM SCT150 BKN200=

USA.gov is the U.S. government's official web portal to all federal, state and local government web resources and services.